createdAt,value
2022-09-28T00:00:47.006Z,76.00
2022-09-28T00:04:50.002Z,76.50
2022-09-28T00:08:52.928Z,76.60
2022-09-28T00:12:57.646Z,76.70
2022-09-28T00:17:00.691Z,77.30
2022-09-28T00:21:11.773Z,77.20
2022-09-28T00:25:16.939Z,77.30
2022-09-28T00:29:34.562Z,77.40
2022-09-28T00:33:46.674Z,77.90
2022-09-28T00:37:50.542Z,78.70
2022-09-28T00:41:54.374Z,78.50
2022-09-28T00:50:31.167Z,78.50
2022-09-28T00:54:37.207Z,78.40
2022-09-28T00:58:46.871Z,78.20
2022-09-28T01:02:50.212Z,78.20
2022-09-28T01:06:53.602Z,78.30
2022-09-28T01:10:59.392Z,78.20
2022-09-28T01:15:05.691Z,78.10
2022-09-28T01:19:40.010Z,78.00
2022-09-28T01:24:22.266Z,78.10
2022-09-28T01:28:28.769Z,78.10
2022-09-28T01:32:51.216Z,78.10
2022-09-28T01:36:58.969Z,78.10
2022-09-28T01:41:04.416Z,78.20
2022-09-28T01:45:14.603Z,78.20
2022-09-28T01:49:27.403Z,78.30
2022-09-28T01:53:43.200Z,78.40
2022-09-28T01:58:01.952Z,78.30
2022-09-28T02:02:13.203Z,78.30
2022-09-28T02:06:22.935Z,78.30
2022-09-28T02:10:33.572Z,78.60
2022-09-28T02:14:40.846Z,78.40
2022-09-28T02:18:45.298Z,78.30
2022-09-28T02:22:53.483Z,78.40
2022-09-28T02:26:59.642Z,78.40
2022-09-28T02:31:07.569Z,78.40
2022-09-28T02:35:13.382Z,78.30
2022-09-28T02:39:18.169Z,78.40
2022-09-28T02:43:31.271Z,78.40
2022-09-28T02:48:10.093Z,78.80
2022-09-28T02:52:43.329Z,79.00
2022-09-28T02:57:24.218Z,79.30
2022-09-28T03:01:35.487Z,79.20
2022-09-28T03:05:41.484Z,78.90
2022-09-28T03:09:56.502Z,79.40
2022-09-28T03:14:00.403Z,79.50
2022-09-28T03:18:13.143Z,79.40
2022-09-28T03:22:17.624Z,79.40
2022-09-28T03:26:24.066Z,79.30
2022-09-28T03:30:27.024Z,79.20
2022-09-28T03:34:33.266Z,79.00
2022-09-28T03:38:36.225Z,79.10
2022-09-28T03:42:39.162Z,79.20
2022-09-28T03:46:42.226Z,79.20
2022-09-28T03:50:45.519Z,79.10
2022-09-28T03:54:49.359Z,79.30
2022-09-28T03:58:53.536Z,79.40
2022-09-28T04:02:56.419Z,79.30
2022-09-28T04:06:59.767Z,79.40
2022-09-28T04:11:02.655Z,79.50
2022-09-28T04:15:06.401Z,79.40
2022-09-28T04:19:09.879Z,79.30
2022-09-28T04:23:47.140Z,79.30
2022-09-28T04:28:09.237Z,79.60
2022-09-28T04:32:21.521Z,79.60
2022-09-28T04:36:25.862Z,79.50
2022-09-28T04:40:37.085Z,79.60
2022-09-28T04:44:40.355Z,79.50
2022-09-28T04:48:47.789Z,79.40
2022-09-28T04:53:10.431Z,79.40
2022-09-28T04:57:13.499Z,79.40
2022-09-28T05:01:19.932Z,79.40
2022-09-28T05:05:57.697Z,79.40
2022-09-28T05:14:39.285Z,79.40
2022-09-28T05:18:47.180Z,79.40
2022-09-28T05:22:52.206Z,79.30
2022-09-28T05:26:55.148Z,79.40
2022-09-28T05:31:05.740Z,79.40
2022-09-28T05:39:44.651Z,79.10
2022-09-28T05:43:48.448Z,79.30
2022-09-28T05:47:54.057Z,79.30
2022-09-28T05:52:02.323Z,79.10
2022-09-28T05:56:06.461Z,79.10
2022-09-28T06:00:14.337Z,79.10
2022-09-28T06:13:22.275Z,79.00
2022-09-28T06:17:29.477Z,79.10
2022-09-28T06:30:38.825Z,78.70
2022-09-28T06:39:02.874Z,78.50
2022-09-28T07:05:50.365Z,78.20
2022-09-28T07:23:50.327Z,77.90
2022-09-28T08:03:59.948Z,77.30
2022-09-28T08:08:11.099Z,77.50
2022-09-28T08:21:46.970Z,77.30
2022-09-28T08:25:54.297Z,77.40
2022-09-28T08:29:59.499Z,77.50
2022-09-28T08:39:34.967Z,77.40
2022-09-28T08:44:14.358Z,77.50
2022-09-28T08:53:39.224Z,77.70
2022-09-28T08:57:57.619Z,77.30
2022-09-28T09:06:45.087Z,78.00
2022-09-28T09:21:18.176Z,77.40
2022-09-28T09:25:25.005Z,77.20
2022-09-28T09:29:50.898Z,76.90
2022-09-28T09:34:15.098Z,76.40
2022-09-28T09:38:27.970Z,75.00
2022-09-28T09:43:21.207Z,74.00
2022-09-28T09:47:45.706Z,73.00
2022-09-28T09:52:24.159Z,72.80
2022-09-28T09:56:46.505Z,72.00
2022-09-28T10:00:58.422Z,72.00
2022-09-28T10:05:22.911Z,72.00
2022-09-28T10:09:35.355Z,71.70
2022-09-28T10:13:55.421Z,71.90
2022-09-28T10:18:21.662Z,72.00
2022-09-28T10:23:08.033Z,72.30
2022-09-28T10:27:32.359Z,72.30
2022-09-28T10:31:52.695Z,72.20
2022-09-28T10:36:06.768Z,72.20
2022-09-28T10:40:45.549Z,71.40
2022-09-28T10:44:57.543Z,70.70
2022-09-28T10:49:20.004Z,70.80
2022-09-28T10:53:34.563Z,70.70
2022-09-28T11:03:27.174Z,70.30
2022-09-28T11:07:44.314Z,70.30
2022-09-28T11:11:49.912Z,70.10
2022-09-28T11:15:54.003Z,69.90
2022-09-28T11:20:43.658Z,69.10
2022-09-28T11:25:12.647Z,69.20
2022-09-28T11:29:36.790Z,69.00
2022-09-28T11:34:31.418Z,68.50
2022-09-28T11:39:03.797Z,68.80
2022-09-28T11:48:29.142Z,68.40
2022-09-28T11:52:44.555Z,69.00
2022-09-28T11:56:58.248Z,69.50
2022-09-28T12:01:37.398Z,70.20
2022-09-28T12:06:37.086Z,70.70
2022-09-28T12:11:10.899Z,70.80
2022-09-28T12:20:50.574Z,70.80
2022-09-28T12:24:58.375Z,70.40
2022-09-28T12:29:13.684Z,70.20
2022-09-28T12:33:17.222Z,69.60
2022-09-28T12:37:28.445Z,69.70
2022-09-28T12:41:56.195Z,69.70
2022-09-28T12:46:33.131Z,68.90
2022-09-28T12:50:49.926Z,69.00
2022-09-28T12:55:06.611Z,68.30
2022-09-28T12:59:31.833Z,67.60
2022-09-28T13:04:03.414Z,67.40
2022-09-28T13:08:42.275Z,67.50
2022-09-28T13:13:18.331Z,67.00
2022-09-28T13:17:56.985Z,66.60
2022-09-28T13:22:43.553Z,65.70
2022-09-28T13:26:50.124Z,64.80
2022-09-28T13:30:55.083Z,64.50
2022-09-28T13:35:05.605Z,64.60
2022-09-28T13:39:40.018Z,64.50
2022-09-28T13:44:18.008Z,64.00
2022-09-28T13:48:27.769Z,63.90
2022-09-28T13:52:57.636Z,63.60
2022-09-28T13:57:37.413Z,63.00
2022-09-28T14:01:48.675Z,63.00
2022-09-28T14:06:24.228Z,63.40
2022-09-28T14:10:52.313Z,63.20
2022-09-28T14:19:37.438Z,61.50
2022-09-28T14:23:59.021Z,61.10
2022-09-28T14:28:38.972Z,59.60
2022-09-28T14:32:49.530Z,60.20
2022-09-28T14:37:11.213Z,59.20
2022-09-28T14:41:18.183Z,59.00
2022-09-28T14:45:35.623Z,59.70
2022-09-28T14:50:03.322Z,59.90
2022-09-28T14:54:26.477Z,59.90
2022-09-28T14:58:41.688Z,59.90
2022-09-28T15:02:50.333Z,60.20
2022-09-28T15:06:53.465Z,60.30
2022-09-28T15:10:58.901Z,60.10
2022-09-28T15:15:08.825Z,60.20
2022-09-28T15:28:19.796Z,60.20
2022-09-28T15:32:27.686Z,60.60
2022-09-28T15:36:51.564Z,60.50
2022-09-28T15:40:58.865Z,59.80
2022-09-28T15:45:29.178Z,59.00
2022-09-28T15:54:25.189Z,57.50
2022-09-28T16:08:28.820Z,57.80
2022-09-28T16:12:39.422Z,58.10
2022-09-28T16:16:52.398Z,57.80
2022-09-28T16:21:03.301Z,58.00
2022-09-28T16:25:17.593Z,58.10
2022-09-28T16:29:42.842Z,57.90
2022-09-28T16:38:34.817Z,59.90
2022-09-28T16:42:49.129Z,60.30
2022-09-28T16:46:58.311Z,60.60
2022-09-28T16:51:01.996Z,60.60
2022-09-28T16:59:44.191Z,60.50
2022-09-28T17:03:49.127Z,60.80
2022-09-28T17:08:03.748Z,61.30
2022-09-28T17:12:17.626Z,61.80
2022-09-28T17:16:42.958Z,62.40
2022-09-28T17:20:50.807Z,62.80
2022-09-28T17:24:55.070Z,63.20
2022-09-28T17:28:59.635Z,63.50
2022-09-28T17:33:06.391Z,63.70
2022-09-28T17:37:14.800Z,63.90
2022-09-28T17:41:21.881Z,64.20
2022-09-28T17:45:28.752Z,64.40
2022-09-28T17:49:31.694Z,64.60
2022-09-28T17:53:36.705Z,64.90
2022-09-28T18:02:03.699Z,64.90
2022-09-28T18:06:18.147Z,64.70
2022-09-28T18:10:25.141Z,65.10
2022-09-28T18:14:31.300Z,65.20
2022-09-28T18:18:39.192Z,65.10
2022-09-28T18:22:45.721Z,65.40
2022-09-28T18:26:50.287Z,65.60
2022-09-28T18:30:55.334Z,65.90
2022-09-28T18:35:01.535Z,66.20
2022-09-28T18:39:06.676Z,66.50
2022-09-28T18:43:12.785Z,66.80
2022-09-28T18:47:16.125Z,67.20
2022-09-28T18:51:24.385Z,67.40
2022-09-28T18:55:31.934Z,67.50
2022-09-28T18:59:36.402Z,67.70
2022-09-28T19:03:41.593Z,67.50
2022-09-28T19:07:48.943Z,67.80
2022-09-28T19:11:54.453Z,67.90
2022-09-28T19:16:21.416Z,67.90
2022-09-28T19:20:26.793Z,68.20
2022-09-28T19:24:31.614Z,68.60
2022-09-28T19:28:43.198Z,68.90
2022-09-28T19:32:51.610Z,68.60
2022-09-28T19:36:57.981Z,67.60
2022-09-28T19:41:01.682Z,67.20
2022-09-28T19:45:37.939Z,67.10
2022-09-28T19:49:46.145Z,66.90
2022-09-28T19:53:52.522Z,66.80
2022-09-28T19:58:02.766Z,66.10
2022-09-28T20:02:07.270Z,65.60
2022-09-28T20:06:17.238Z,65.90
2022-09-28T20:10:25.503Z,65.60
2022-09-28T20:14:40.265Z,65.60
2022-09-28T20:18:53.136Z,65.60
2022-09-28T20:22:58.430Z,65.50
2022-09-28T20:27:02.541Z,65.60
2022-09-28T20:31:26.704Z,65.00
2022-09-28T20:35:34.874Z,65.00
2022-09-28T20:39:41.583Z,65.10
2022-09-28T20:43:53.955Z,65.30
2022-09-28T20:48:04.130Z,65.40
2022-09-28T20:52:07.644Z,65.70
2022-09-28T20:56:14.044Z,65.90
2022-09-28T21:00:17.485Z,66.00
2022-09-28T21:04:25.263Z,66.40
2022-09-28T21:08:29.008Z,66.70
2022-09-28T21:12:34.254Z,67.50
2022-09-28T21:16:40.830Z,68.00
2022-09-28T21:20:51.917Z,68.30
2022-09-28T21:24:56.719Z,68.50
2022-09-28T21:29:13.246Z,68.40
2022-09-28T21:33:16.037Z,68.70
2022-09-28T21:37:20.999Z,69.00
2022-09-28T21:41:25.402Z,68.80
2022-09-28T21:45:28.716Z,68.90
2022-09-28T21:49:32.924Z,69.10
2022-09-28T21:53:38.465Z,69.30
2022-09-28T21:57:41.115Z,69.40
2022-09-28T22:01:44.525Z,69.40
2022-09-28T22:05:52.190Z,69.60
2022-09-28T22:09:59.143Z,69.80
2022-09-28T22:14:02.372Z,69.90
2022-09-28T22:18:05.086Z,69.50
2022-09-28T22:22:09.836Z,69.10
2022-09-28T22:26:19.469Z,69.20
2022-09-28T22:30:22.131Z,69.10
2022-09-28T22:34:28.103Z,69.30
2022-09-28T22:38:32.742Z,70.40
2022-09-28T22:42:35.447Z,70.90
2022-09-28T22:46:38.242Z,71.20
2022-09-28T22:50:51.907Z,71.20
2022-09-28T22:54:56.074Z,71.70
2022-09-28T22:58:59.186Z,72.40
2022-09-28T23:03:03.741Z,72.90
2022-09-28T23:07:07.468Z,73.40
2022-09-28T23:11:10.585Z,73.50
2022-09-28T23:15:14.334Z,73.60
2022-09-28T23:19:18.597Z,73.60
2022-09-28T23:23:22.190Z,73.70
2022-09-28T23:27:25.328Z,73.60
2022-09-28T23:31:31.984Z,73.70
2022-09-28T23:35:34.697Z,73.60
2022-09-28T23:39:37.345Z,73.30
2022-09-28T23:43:42.713Z,72.50
2022-09-28T23:47:45.845Z,72.20
2022-09-28T23:51:49.005Z,71.60
2022-09-28T23:55:52.443Z,71.20
2022-09-28T23:59:56.025Z,71.00
